sensor_id;sensor_type;location;lat;lon;timestamp;P1;durP1;ratioP1;P2;durP2;ratioP2
40745;SDS011;26454;51.164;4.488;2022-12-20T00:01:08;4.43;;;2.80;;
40745;SDS011;26454;51.164;4.488;2022-12-20T00:03:35;3.42;;;3.00;;
40745;SDS011;26454;51.164;4.488;2022-12-20T00:06:02;3.85;;;3.33;;
40745;SDS011;26454;51.164;4.488;2022-12-20T00:08:28;4.00;;;3.17;;
40745;SDS011;26454;51.164;4.488;2022-12-20T00:10:54;2.95;;;2.67;;
40745;SDS011;26454;51.164;4.488;2022-12-20T00:13:20;6.97;;;3.17;;
40745;SDS011;26454;51.164;4.488;2022-12-20T00:15:46;6.03;;;3.20;;
40745;SDS011;26454;51.164;4.488;2022-12-20T00:18:12;4.75;;;2.97;;
40745;SDS011;26454;51.164;4.488;2022-12-20T00:20:38;3.28;;;2.55;;
40745;SDS011;26454;51.164;4.488;2022-12-20T00:23:05;6.45;;;3.95;;
40745;SDS011;26454;51.164;4.488;2022-12-20T00:25:31;4.03;;;3.25;;
40745;SDS011;26454;51.164;4.488;2022-12-20T00:27:57;5.43;;;3.58;;
40745;SDS011;26454;51.164;4.488;2022-12-20T00:30:23;7.68;;;3.55;;
40745;SDS011;26454;51.164;4.488;2022-12-20T00:32:49;4.63;;;3.75;;
40745;SDS011;26454;51.164;4.488;2022-12-20T00:35:15;4.50;;;2.90;;
40745;SDS011;26454;51.164;4.488;2022-12-20T00:37:41;5.15;;;3.42;;
40745;SDS011;26454;51.164;4.488;2022-12-20T00:40:07;8.52;;;2.90;;
40745;SDS011;26454;51.164;4.488;2022-12-20T00:42:34;5.82;;;3.42;;
40745;SDS011;26454;51.164;4.488;2022-12-20T00:45:08;5.20;;;3.40;;
40745;SDS011;26454;51.164;4.488;2022-12-20T00:47:37;6.63;;;3.60;;
40745;SDS011;26454;51.164;4.488;2022-12-20T00:50:03;7.60;;;4.22;;
40745;SDS011;26454;51.164;4.488;2022-12-20T00:52:29;7.07;;;4.07;;
40745;SDS011;26454;51.164;4.488;2022-12-20T00:54:57;7.63;;;3.53;;
40745;SDS011;26454;51.164;4.488;2022-12-20T00:57:23;6.22;;;3.63;;
40745;SDS011;26454;51.164;4.488;2022-12-20T00:59:49;3.75;;;3.45;;
40745;SDS011;26454;51.164;4.488;2022-12-20T01:02:15;4.13;;;3.58;;
40745;SDS011;26454;51.164;4.488;2022-12-20T01:04:41;3.85;;;3.30;;
40745;SDS011;26454;51.164;4.488;2022-12-20T01:07:07;5.70;;;3.85;;
40745;SDS011;26454;51.164;4.488;2022-12-20T01:09:35;6.72;;;3.78;;
40745;SDS011;26454;51.164;4.488;2022-12-20T01:12:02;5.18;;;3.80;;
40745;SDS011;26454;51.164;4.488;2022-12-20T01:14:28;4.13;;;3.03;;
40745;SDS011;26454;51.164;4.488;2022-12-20T01:16:54;9.88;;;3.80;;
40745;SDS011;26454;51.164;4.488;2022-12-20T01:19:20;5.82;;;3.22;;
40745;SDS011;26454;51.164;4.488;2022-12-20T01:21:46;4.65;;;3.33;;
40745;SDS011;26454;51.164;4.488;2022-12-20T01:24:12;4.88;;;3.50;;
40745;SDS011;26454;51.164;4.488;2022-12-20T01:26:39;4.30;;;3.75;;
40745;SDS011;26454;51.164;4.488;2022-12-20T01:29:05;4.55;;;3.47;;
40745;SDS011;26454;51.164;4.488;2022-12-20T01:31:31;7.90;;;3.85;;
40745;SDS011;26454;51.164;4.488;2022-12-20T01:33:58;5.32;;;3.63;;
40745;SDS011;26454;51.164;4.488;2022-12-20T01:36:29;5.38;;;3.33;;
40745;SDS011;26454;51.164;4.488;2022-12-20T01:39:14;8.00;;;3.88;;
40745;SDS011;26454;51.164;4.488;2022-12-20T01:41:41;5.15;;;3.38;;
40745;SDS011;26454;51.164;4.488;2022-12-20T01:46:45;6.38;;;3.40;;
40745;SDS011;26454;51.164;4.488;2022-12-20T01:51:39;6.50;;;3.42;;
40745;SDS011;26454;51.164;4.488;2022-12-20T01:54:16;3.20;;;2.90;;
40745;SDS011;26454;51.164;4.488;2022-12-20T01:56:45;5.95;;;3.88;;
40745;SDS011;26454;51.164;4.488;2022-12-20T01:59:12;5.65;;;3.80;;
40745;SDS011;26454;51.164;4.488;2022-12-20T02:01:39;4.07;;;3.60;;
40745;SDS011;26454;51.164;4.488;2022-12-20T02:04:06;6.07;;;3.10;;
40745;SDS011;26454;51.164;4.488;2022-12-20T02:06:32;3.60;;;3.22;;
40745;SDS011;26454;51.164;4.488;2022-12-20T02:08:58;4.00;;;3.35;;
40745;SDS011;26454;51.164;4.488;2022-12-20T02:16:43;4.27;;;3.47;;
40745;SDS011;26454;51.164;4.488;2022-12-20T02:21:54;7.63;;;4.18;;
40745;SDS011;26454;51.164;4.488;2022-12-20T02:32:33;5.28;;;3.60;;
40745;SDS011;26454;51.164;4.488;2022-12-20T02:35:03;3.97;;;3.30;;
40745;SDS011;26454;51.164;4.488;2022-12-20T02:37:29;6.28;;;3.50;;
40745;SDS011;26454;51.164;4.488;2022-12-20T02:39:55;6.18;;;4.10;;
40745;SDS011;26454;51.164;4.488;2022-12-20T02:42:22;5.72;;;2.90;;
40745;SDS011;26454;51.164;4.488;2022-12-20T02:44:56;4.75;;;3.35;;
40745;SDS011;26454;51.164;4.488;2022-12-20T02:47:51;4.00;;;2.78;;
40745;SDS011;26454;51.164;4.488;2022-12-20T02:50:34;5.90;;;4.22;;
40745;SDS011;26454;51.164;4.488;2022-12-20T02:53:03;5.47;;;3.20;;
40745;SDS011;26454;51.164;4.488;2022-12-20T02:55:37;4.90;;;3.78;;
40745;SDS011;26454;51.164;4.488;2022-12-20T02:58:08;6.53;;;3.90;;
40745;SDS011;26454;51.164;4.488;2022-12-20T03:00:37;5.18;;;3.63;;
40745;SDS011;26454;51.164;4.488;2022-12-20T03:03:04;10.50;;;3.42;;
40745;SDS011;26454;51.164;4.488;2022-12-20T03:05:51;6.65;;;4.25;;
40745;SDS011;26454;51.164;4.488;2022-12-20T03:08:18;3.55;;;2.70;;
40745;SDS011;26454;51.164;4.488;2022-12-20T03:10:45;3.25;;;3.00;;
40745;SDS011;26454;51.164;4.488;2022-12-20T03:13:12;5.65;;;3.50;;
40745;SDS011;26454;51.164;4.488;2022-12-20T03:15:39;4.45;;;3.60;;
40745;SDS011;26454;51.164;4.488;2022-12-20T03:18:05;5.10;;;3.00;;
40745;SDS011;26454;51.164;4.488;2022-12-20T03:20:32;5.35;;;2.80;;
40745;SDS011;26454;51.164;4.488;2022-12-20T03:22:58;5.78;;;2.83;;
40745;SDS011;26454;51.164;4.488;2022-12-20T03:25:25;4.97;;;2.88;;
40745;SDS011;26454;51.164;4.488;2022-12-20T03:27:51;5.57;;;3.17;;
40745;SDS011;26454;51.164;4.488;2022-12-20T03:30:17;4.68;;;3.45;;
40745;SDS011;26454;51.164;4.488;2022-12-20T03:32:43;4.82;;;2.83;;
40745;SDS011;26454;51.164;4.488;2022-12-20T03:35:09;4.88;;;3.83;;
40745;SDS011;26454;51.164;4.488;2022-12-20T03:37:36;4.10;;;2.92;;
40745;SDS011;26454;51.164;4.488;2022-12-20T03:40:04;6.18;;;2.95;;
40745;SDS011;26454;51.164;4.488;2022-12-20T03:42:30;5.65;;;3.20;;
40745;SDS011;26454;51.164;4.488;2022-12-20T03:44:56;5.32;;;2.72;;
40745;SDS011;26454;51.164;4.488;2022-12-20T03:47:24;3.83;;;3.53;;
40745;SDS011;26454;51.164;4.488;2022-12-20T03:49:50;4.10;;;3.80;;
40745;SDS011;26454;51.164;4.488;2022-12-20T03:52:19;5.00;;;3.17;;
40745;SDS011;26454;51.164;4.488;2022-12-20T03:54:45;4.27;;;2.70;;
40745;SDS011;26454;51.164;4.488;2022-12-20T03:57:11;3.53;;;3.08;;
40745;SDS011;26454;51.164;4.488;2022-12-20T03:59:38;4.47;;;3.10;;
40745;SDS011;26454;51.164;4.488;2022-12-20T04:02:04;5.60;;;3.20;;
40745;SDS011;26454;51.164;4.488;2022-12-20T04:04:30;3.63;;;2.90;;
40745;SDS011;26454;51.164;4.488;2022-12-20T04:06:56;4.43;;;2.67;;
40745;SDS011;26454;51.164;4.488;2022-12-20T04:09:22;4.10;;;3.13;;
40745;SDS011;26454;51.164;4.488;2022-12-20T04:11:48;5.57;;;3.10;;
40745;SDS011;26454;51.164;4.488;2022-12-20T04:14:14;4.97;;;3.08;;
40745;SDS011;26454;51.164;4.488;2022-12-20T04:16:40;3.08;;;2.78;;
40745;SDS011;26454;51.164;4.488;2022-12-20T04:19:06;6.55;;;3.25;;
40745;SDS011;26454;51.164;4.488;2022-12-20T04:21:33;5.35;;;3.35;;
40745;SDS011;26454;51.164;4.488;2022-12-20T04:24:00;3.75;;;3.25;;
40745;SDS011;26454;51.164;4.488;2022-12-20T04:26:27;5.03;;;3.22;;
40745;SDS011;26454;51.164;4.488;2022-12-20T04:28:53;4.47;;;3.67;;
40745;SDS011;26454;51.164;4.488;2022-12-20T04:31:19;3.80;;;2.78;;
40745;SDS011;26454;51.164;4.488;2022-12-20T04:33:45;5.70;;;3.40;;
40745;SDS011;26454;51.164;4.488;2022-12-20T04:36:12;6.00;;;3.40;;
40745;SDS011;26454;51.164;4.488;2022-12-20T04:38:39;4.63;;;2.88;;
40745;SDS011;26454;51.164;4.488;2022-12-20T04:41:05;3.55;;;2.85;;
40745;SDS011;26454;51.164;4.488;2022-12-20T04:43:31;3.85;;;3.10;;
40745;SDS011;26454;51.164;4.488;2022-12-20T04:45:57;4.70;;;2.70;;
40745;SDS011;26454;51.164;4.488;2022-12-20T04:48:24;4.00;;;2.95;;
40745;SDS011;26454;51.164;4.488;2022-12-20T04:50:51;3.42;;;2.67;;
40745;SDS011;26454;51.164;4.488;2022-12-20T04:53:17;2.80;;;2.60;;
40745;SDS011;26454;51.164;4.488;2022-12-20T04:56:02;3.70;;;2.75;;
40745;SDS011;26454;51.164;4.488;2022-12-20T04:58:28;3.30;;;2.58;;
40745;SDS011;26454;51.164;4.488;2022-12-20T05:00:54;6.20;;;3.08;;
40745;SDS011;26454;51.164;4.488;2022-12-20T05:03:21;3.25;;;2.95;;
40745;SDS011;26454;51.164;4.488;2022-12-20T05:05:48;5.13;;;3.20;;
40745;SDS011;26454;51.164;4.488;2022-12-20T05:08:14;8.13;;;2.97;;
40745;SDS011;26454;51.164;4.488;2022-12-20T05:10:41;5.05;;;3.10;;
40745;SDS011;26454;51.164;4.488;2022-12-20T05:13:07;5.88;;;3.25;;
40745;SDS011;26454;51.164;4.488;2022-12-20T05:15:33;4.95;;;3.15;;
40745;SDS011;26454;51.164;4.488;2022-12-20T05:18:00;6.85;;;3.22;;
40745;SDS011;26454;51.164;4.488;2022-12-20T05:20:26;5.10;;;3.25;;
40745;SDS011;26454;51.164;4.488;2022-12-20T05:22:52;4.03;;;3.50;;
40745;SDS011;26454;51.164;4.488;2022-12-20T05:25:37;3.75;;;2.70;;
40745;SDS011;26454;51.164;4.488;2022-12-20T05:28:22;3.25;;;2.55;;
40745;SDS011;26454;51.164;4.488;2022-12-20T05:30:49;5.35;;;2.92;;
40745;SDS011;26454;51.164;4.488;2022-12-20T05:33:15;5.55;;;2.97;;
40745;SDS011;26454;51.164;4.488;2022-12-20T05:35:41;4.90;;;2.90;;
40745;SDS011;26454;51.164;4.488;2022-12-20T05:38:07;4.68;;;2.70;;
40745;SDS011;26454;51.164;4.488;2022-12-20T05:40:33;3.60;;;3.30;;
40745;SDS011;26454;51.164;4.488;2022-12-20T05:43:01;3.92;;;3.13;;
40745;SDS011;26454;51.164;4.488;2022-12-20T05:45:27;8.02;;;3.50;;
40745;SDS011;26454;51.164;4.488;2022-12-20T05:47:54;8.63;;;3.95;;
40745;SDS011;26454;51.164;4.488;2022-12-20T05:50:20;7.45;;;3.35;;
40745;SDS011;26454;51.164;4.488;2022-12-20T05:52:46;3.97;;;3.17;;
40745;SDS011;26454;51.164;4.488;2022-12-20T05:55:12;4.30;;;3.28;;
40745;SDS011;26454;51.164;4.488;2022-12-20T05:57:38;3.92;;;2.67;;
40745;SDS011;26454;51.164;4.488;2022-12-20T06:00:05;3.45;;;3.15;;
40745;SDS011;26454;51.164;4.488;2022-12-20T06:02:31;4.72;;;2.97;;
40745;SDS011;26454;51.164;4.488;2022-12-20T06:04:57;7.13;;;3.42;;
40745;SDS011;26454;51.164;4.488;2022-12-20T06:07:23;5.93;;;3.65;;
40745;SDS011;26454;51.164;4.488;2022-12-20T06:09:49;4.20;;;3.22;;
40745;SDS011;26454;51.164;4.488;2022-12-20T06:12:16;4.07;;;2.63;;
40745;SDS011;26454;51.164;4.488;2022-12-20T06:14:43;4.45;;;3.33;;
40745;SDS011;26454;51.164;4.488;2022-12-20T06:17:10;4.85;;;2.53;;
40745;SDS011;26454;51.164;4.488;2022-12-20T06:19:36;5.15;;;3.10;;
40745;SDS011;26454;51.164;4.488;2022-12-20T06:22:05;4.13;;;2.83;;
40745;SDS011;26454;51.164;4.488;2022-12-20T06:24:32;4.70;;;2.75;;
40745;SDS011;26454;51.164;4.488;2022-12-20T06:26:58;4.53;;;3.13;;
40745;SDS011;26454;51.164;4.488;2022-12-20T06:29:24;4.45;;;3.25;;
40745;SDS011;26454;51.164;4.488;2022-12-20T06:31:52;3.08;;;2.50;;
40745;SDS011;26454;51.164;4.488;2022-12-20T06:34:19;5.80;;;3.05;;
40745;SDS011;26454;51.164;4.488;2022-12-20T06:36:45;4.95;;;2.65;;
40745;SDS011;26454;51.164;4.488;2022-12-20T06:39:13;6.05;;;3.03;;
40745;SDS011;26454;51.164;4.488;2022-12-20T06:41:39;4.00;;;3.22;;
40745;SDS011;26454;51.164;4.488;2022-12-20T06:44:05;4.55;;;2.22;;
40745;SDS011;26454;51.164;4.488;2022-12-20T06:46:32;5.00;;;3.03;;
40745;SDS011;26454;51.164;4.488;2022-12-20T06:48:58;3.55;;;2.42;;
40745;SDS011;26454;51.164;4.488;2022-12-20T06:51:25;2.45;;;2.13;;
40745;SDS011;26454;51.164;4.488;2022-12-20T06:53:51;4.57;;;2.47;;
40745;SDS011;26454;51.164;4.488;2022-12-20T06:56:17;5.03;;;2.55;;
40745;SDS011;26454;51.164;4.488;2022-12-20T06:58:45;3.97;;;2.45;;
40745;SDS011;26454;51.164;4.488;2022-12-20T07:01:13;4.32;;;2.50;;
40745;SDS011;26454;51.164;4.488;2022-12-20T07:03:39;4.97;;;2.90;;
40745;SDS011;26454;51.164;4.488;2022-12-20T07:06:05;3.30;;;2.42;;
40745;SDS011;26454;51.164;4.488;2022-12-20T07:08:31;7.85;;;2.72;;
40745;SDS011;26454;51.164;4.488;2022-12-20T07:11:05;6.72;;;2.88;;
40745;SDS011;26454;51.164;4.488;2022-12-20T07:13:32;3.63;;;2.30;;
40745;SDS011;26454;51.164;4.488;2022-12-20T07:15:59;2.78;;;2.40;;
40745;SDS011;26454;51.164;4.488;2022-12-20T07:18:25;7.43;;;3.25;;
40745;SDS011;26454;51.164;4.488;2022-12-20T07:20:51;5.25;;;3.05;;
40745;SDS011;26454;51.164;4.488;2022-12-20T07:23:18;5.22;;;2.55;;
40745;SDS011;26454;51.164;4.488;2022-12-20T07:25:55;3.45;;;3.00;;
40745;SDS011;26454;51.164;4.488;2022-12-20T07:28:22;4.68;;;3.25;;
40745;SDS011;26454;51.164;4.488;2022-12-20T07:30:49;4.55;;;3.10;;
40745;SDS011;26454;51.164;4.488;2022-12-20T07:33:15;5.43;;;3.30;;
40745;SDS011;26454;51.164;4.488;2022-12-20T07:35:41;5.20;;;3.38;;
40745;SDS011;26454;51.164;4.488;2022-12-20T07:38:09;7.43;;;3.95;;
40745;SDS011;26454;51.164;4.488;2022-12-20T07:40:35;6.88;;;2.92;;
40745;SDS011;26454;51.164;4.488;2022-12-20T07:43:04;6.07;;;3.67;;
40745;SDS011;26454;51.164;4.488;2022-12-20T07:45:30;5.68;;;3.10;;
40745;SDS011;26454;51.164;4.488;2022-12-20T07:47:56;5.95;;;3.55;;
40745;SDS011;26454;51.164;4.488;2022-12-20T07:50:23;7.50;;;3.78;;
40745;SDS011;26454;51.164;4.488;2022-12-20T07:52:49;6.22;;;5.50;;
40745;SDS011;26454;51.164;4.488;2022-12-20T07:55:15;5.00;;;4.20;;
40745;SDS011;26454;51.164;4.488;2022-12-20T07:57:43;10.40;;;4.70;;
40745;SDS011;26454;51.164;4.488;2022-12-20T08:00:11;9.85;;;7.82;;
40745;SDS011;26454;51.164;4.488;2022-12-20T08:02:42;7.90;;;5.15;;
40745;SDS011;26454;51.164;4.488;2022-12-20T08:05:10;7.93;;;6.82;;
40745;SDS011;26454;51.164;4.488;2022-12-20T08:07:37;9.25;;;7.72;;
40745;SDS011;26454;51.164;4.488;2022-12-20T08:10:06;8.35;;;6.75;;
40745;SDS011;26454;51.164;4.488;2022-12-20T08:12:33;5.18;;;4.57;;
40745;SDS011;26454;51.164;4.488;2022-12-20T08:15:01;5.82;;;4.25;;
40745;SDS011;26454;51.164;4.488;2022-12-20T08:17:28;6.93;;;5.00;;
40745;SDS011;26454;51.164;4.488;2022-12-20T08:19:54;5.03;;;4.63;;
40745;SDS011;26454;51.164;4.488;2022-12-20T08:22:21;14.00;;;6.68;;
40745;SDS011;26454;51.164;4.488;2022-12-20T08:24:48;8.00;;;7.40;;
40745;SDS011;26454;51.164;4.488;2022-12-20T08:27:23;6.03;;;5.57;;
40745;SDS011;26454;51.164;4.488;2022-12-20T08:29:49;8.55;;;7.75;;
40745;SDS011;26454;51.164;4.488;2022-12-20T08:32:15;6.47;;;5.72;;
40745;SDS011;26454;51.164;4.488;2022-12-20T08:34:42;11.50;;;6.47;;
40745;SDS011;26454;51.164;4.488;2022-12-20T08:37:10;11.02;;;6.05;;
40745;SDS011;26454;51.164;4.488;2022-12-20T08:39:36;6.60;;;5.88;;
40745;SDS011;26454;51.164;4.488;2022-12-20T08:42:12;8.50;;;5.63;;
40745;SDS011;26454;51.164;4.488;2022-12-20T08:44:38;6.57;;;5.95;;
40745;SDS011;26454;51.164;4.488;2022-12-20T08:47:05;9.73;;;6.03;;
40745;SDS011;26454;51.164;4.488;2022-12-20T08:49:31;10.60;;;4.60;;
40745;SDS011;26454;51.164;4.488;2022-12-20T08:51:57;8.50;;;5.57;;
40745;SDS011;26454;51.164;4.488;2022-12-20T08:54:23;6.35;;;4.43;;
40745;SDS011;26454;51.164;4.488;2022-12-20T08:56:49;10.52;;;8.75;;
40745;SDS011;26454;51.164;4.488;2022-12-20T08:59:15;7.65;;;4.60;;
40745;SDS011;26454;51.164;4.488;2022-12-20T09:01:41;9.02;;;4.88;;
40745;SDS011;26454;51.164;4.488;2022-12-20T09:04:09;8.05;;;6.50;;
40745;SDS011;26454;51.164;4.488;2022-12-20T09:06:35;7.03;;;4.60;;
40745;SDS011;26454;51.164;4.488;2022-12-20T09:09:08;7.53;;;4.20;;
40745;SDS011;26454;51.164;4.488;2022-12-20T09:11:34;7.38;;;4.22;;
40745;SDS011;26454;51.164;4.488;2022-12-20T09:14:00;6.50;;;4.68;;
40745;SDS011;26454;51.164;4.488;2022-12-20T09:16:28;7.95;;;4.03;;
40745;SDS011;26454;51.164;4.488;2022-12-20T09:18:56;9.00;;;4.35;;
40745;SDS011;26454;51.164;4.488;2022-12-20T09:21:23;7.03;;;5.65;;
40745;SDS011;26454;51.164;4.488;2022-12-20T09:23:55;14.57;;;13.23;;
40745;SDS011;26454;51.164;4.488;2022-12-20T09:26:22;6.90;;;5.82;;
40745;SDS011;26454;51.164;4.488;2022-12-20T09:28:50;8.93;;;4.45;;
40745;SDS011;26454;51.164;4.488;2022-12-20T09:31:18;9.20;;;5.60;;
40745;SDS011;26454;51.164;4.488;2022-12-20T09:33:44;7.30;;;6.35;;
40745;SDS011;26454;51.164;4.488;2022-12-20T09:36:12;8.13;;;4.93;;
40745;SDS011;26454;51.164;4.488;2022-12-20T09:38:38;11.77;;;8.85;;
40745;SDS011;26454;51.164;4.488;2022-12-20T09:41:05;10.93;;;6.95;;
40745;SDS011;26454;51.164;4.488;2022-12-20T09:43:32;11.15;;;9.20;;
40745;SDS011;26454;51.164;4.488;2022-12-20T09:46:00;22.95;;;21.15;;
40745;SDS011;26454;51.164;4.488;2022-12-20T09:48:32;9.13;;;6.00;;
40745;SDS011;26454;51.164;4.488;2022-12-20T09:56:35;5.47;;;4.90;;
40745;SDS011;26454;51.164;4.488;2022-12-20T09:59:09;5.68;;;5.18;;
40745;SDS011;26454;51.164;4.488;2022-12-20T10:01:36;5.20;;;4.55;;
40745;SDS011;26454;51.164;4.488;2022-12-20T10:04:04;9.60;;;5.55;;
40745;SDS011;26454;51.164;4.488;2022-12-20T10:09:04;9.00;;;5.50;;
40745;SDS011;26454;51.164;4.488;2022-12-20T10:19:02;12.95;;;6.30;;
40745;SDS011;26454;51.164;4.488;2022-12-20T10:21:42;12.40;;;5.00;;
40745;SDS011;26454;51.164;4.488;2022-12-20T10:24:14;9.82;;;6.32;;
40745;SDS011;26454;51.164;4.488;2022-12-20T10:26:41;8.45;;;5.22;;
40745;SDS011;26454;51.164;4.488;2022-12-20T10:29:07;5.40;;;4.90;;
40745;SDS011;26454;51.164;4.488;2022-12-20T10:31:34;10.73;;;8.52;;
40745;SDS011;26454;51.164;4.488;2022-12-20T10:34:00;7.05;;;6.30;;
40745;SDS011;26454;51.164;4.488;2022-12-20T10:36:27;18.70;;;17.15;;
40745;SDS011;26454;51.164;4.488;2022-12-20T10:38:55;10.45;;;7.25;;
40745;SDS011;26454;51.164;4.488;2022-12-20T10:41:26;11.68;;;8.18;;
40745;SDS011;26454;51.164;4.488;2022-12-20T10:44:02;15.90;;;13.88;;
40745;SDS011;26454;51.164;4.488;2022-12-20T10:46:40;11.98;;;10.18;;
40745;SDS011;26454;51.164;4.488;2022-12-20T10:51:58;12.98;;;11.68;;
40745;SDS011;26454;51.164;4.488;2022-12-20T10:54:28;12.88;;;11.88;;
40745;SDS011;26454;51.164;4.488;2022-12-20T10:56:59;11.65;;;10.68;;
40745;SDS011;26454;51.164;4.488;2022-12-20T10:59:34;13.43;;;11.93;;
40745;SDS011;26454;51.164;4.488;2022-12-20T11:07:36;14.20;;;11.35;;
40745;SDS011;26454;51.164;4.488;2022-12-20T11:10:25;37.75;;;35.38;;
40745;SDS011;26454;51.164;4.488;2022-12-20T11:12:53;14.00;;;12.82;;
40745;SDS011;26454;51.164;4.488;2022-12-20T11:15:22;12.98;;;11.77;;
40745;SDS011;26454;51.164;4.488;2022-12-20T11:17:50;12.82;;;11.50;;
40745;SDS011;26454;51.164;4.488;2022-12-20T11:20:24;50.17;;;46.75;;
40745;SDS011;26454;51.164;4.488;2022-12-20T11:36:05;14.45;;;13.15;;
40745;SDS011;26454;51.164;4.488;2022-12-20T11:51:46;10.63;;;9.70;;
40745;SDS011;26454;51.164;4.488;2022-12-20T11:54:29;10.32;;;9.57;;
40745;SDS011;26454;51.164;4.488;2022-12-20T11:57:02;13.70;;;12.32;;
40745;SDS011;26454;51.164;4.488;2022-12-20T12:01:59;9.98;;;7.90;;
40745;SDS011;26454;51.164;4.488;2022-12-20T12:04:30;21.77;;;19.77;;
40745;SDS011;26454;51.164;4.488;2022-12-20T12:06:58;10.15;;;8.88;;
40745;SDS011;26454;51.164;4.488;2022-12-20T12:09:36;10.20;;;9.50;;
40745;SDS011;26454;51.164;4.488;2022-12-20T12:14:40;11.88;;;10.73;;
40745;SDS011;26454;51.164;4.488;2022-12-20T12:17:08;11.20;;;9.57;;
40745;SDS011;26454;51.164;4.488;2022-12-20T12:19:38;9.07;;;8.27;;
40745;SDS011;26454;51.164;4.488;2022-12-20T12:22:08;12.80;;;9.00;;
40745;SDS011;26454;51.164;4.488;2022-12-20T12:24:44;10.20;;;9.18;;
40745;SDS011;26454;51.164;4.488;2022-12-20T12:27:14;9.90;;;8.88;;
40745;SDS011;26454;51.164;4.488;2022-12-20T12:29:44;11.10;;;9.02;;
40745;SDS011;26454;51.164;4.488;2022-12-20T12:32:24;15.57;;;10.18;;
40745;SDS011;26454;51.164;4.488;2022-12-20T12:35:17;15.93;;;14.38;;
40745;SDS011;26454;51.164;4.488;2022-12-20T12:38:02;12.25;;;10.52;;
40745;SDS011;26454;51.164;4.488;2022-12-20T12:48:16;8.30;;;6.78;;
40745;SDS011;26454;51.164;4.488;2022-12-20T12:50:45;8.63;;;7.63;;
40745;SDS011;26454;51.164;4.488;2022-12-20T12:55:57;10.90;;;8.07;;
40745;SDS011;26454;51.164;4.488;2022-12-20T13:01:00;9.13;;;8.30;;
40745;SDS011;26454;51.164;4.488;2022-12-20T13:11:34;11.43;;;7.72;;
40745;SDS011;26454;51.164;4.488;2022-12-20T13:19:19;9.60;;;7.72;;
40745;SDS011;26454;51.164;4.488;2022-12-20T13:21:56;9.35;;;7.35;;
40745;SDS011;26454;51.164;4.488;2022-12-20T13:25:18;9.27;;;8.38;;
40745;SDS011;26454;51.164;4.488;2022-12-20T13:27:35;9.57;;;6.63;;
40745;SDS011;26454;51.164;4.488;2022-12-20T13:45:53;10.27;;;9.23;;
40745;SDS011;26454;51.164;4.488;2022-12-20T13:51:19;8.43;;;7.50;;
40745;SDS011;26454;51.164;4.488;2022-12-20T13:53:58;12.48;;;10.20;;
40745;SDS011;26454;51.164;4.488;2022-12-20T13:58:54;12.02;;;8.25;;
40745;SDS011;26454;51.164;4.488;2022-12-20T14:01:21;10.95;;;9.98;;
40745;SDS011;26454;51.164;4.488;2022-12-20T14:03:48;13.30;;;8.27;;
40745;SDS011;26454;51.164;4.488;2022-12-20T14:06:14;9.75;;;8.75;;
40745;SDS011;26454;51.164;4.488;2022-12-20T14:08:42;9.43;;;8.52;;
40745;SDS011;26454;51.164;4.488;2022-12-20T14:11:12;13.25;;;8.75;;
40745;SDS011;26454;51.164;4.488;2022-12-20T14:13:39;12.32;;;8.52;;
40745;SDS011;26454;51.164;4.488;2022-12-20T14:16:16;10.50;;;9.20;;
40745;SDS011;26454;51.164;4.488;2022-12-20T14:21:27;11.10;;;9.13;;
40745;SDS011;26454;51.164;4.488;2022-12-20T14:23:54;10.63;;;9.43;;
40745;SDS011;26454;51.164;4.488;2022-12-20T14:26:21;14.68;;;10.15;;
40745;SDS011;26454;51.164;4.488;2022-12-20T14:28:49;13.93;;;10.68;;
40745;SDS011;26454;51.164;4.488;2022-12-20T14:31:36;11.32;;;8.80;;
40745;SDS011;26454;51.164;4.488;2022-12-20T14:34:25;14.07;;;10.45;;
40745;SDS011;26454;51.164;4.488;2022-12-20T14:36:49;9.88;;;8.90;;
40745;SDS011;26454;51.164;4.488;2022-12-20T14:39:32;14.55;;;10.00;;
40745;SDS011;26454;51.164;4.488;2022-12-20T14:44:33;15.20;;;10.93;;
40745;SDS011;26454;51.164;4.488;2022-12-20T14:47:00;9.93;;;8.60;;
40745;SDS011;26454;51.164;4.488;2022-12-20T14:49:30;11.55;;;10.25;;
40745;SDS011;26454;51.164;4.488;2022-12-20T15:00:09;9.70;;;8.73;;
40745;SDS011;26454;51.164;4.488;2022-12-20T15:05:07;13.43;;;9.53;;
40745;SDS011;26454;51.164;4.488;2022-12-20T15:07:33;10.80;;;9.10;;
40745;SDS011;26454;51.164;4.488;2022-12-20T15:09:59;13.25;;;9.77;;
40745;SDS011;26454;51.164;4.488;2022-12-20T15:12:25;14.45;;;10.18;;
40745;SDS011;26454;51.164;4.488;2022-12-20T15:14:51;20.02;;;15.07;;
40745;SDS011;26454;51.164;4.488;2022-12-20T15:17:17;11.60;;;10.25;;
40745;SDS011;26454;51.164;4.488;2022-12-20T15:19:43;11.68;;;9.80;;
40745;SDS011;26454;51.164;4.488;2022-12-20T15:22:13;12.27;;;10.98;;
40745;SDS011;26454;51.164;4.488;2022-12-20T15:24:40;13.35;;;11.60;;
40745;SDS011;26454;51.164;4.488;2022-12-20T15:27:13;13.20;;;10.73;;
40745;SDS011;26454;51.164;4.488;2022-12-20T15:29:40;12.45;;;11.07;;
40745;SDS011;26454;51.164;4.488;2022-12-20T15:34:33;12.45;;;11.20;;
40745;SDS011;26454;51.164;4.488;2022-12-20T15:37:00;16.17;;;14.55;;
40745;SDS011;26454;51.164;4.488;2022-12-20T15:39:28;12.88;;;11.57;;
40745;SDS011;26454;51.164;4.488;2022-12-20T15:41:54;18.08;;;13.05;;
40745;SDS011;26454;51.164;4.488;2022-12-20T15:44:21;12.73;;;11.55;;
40745;SDS011;26454;51.164;4.488;2022-12-20T15:46:48;14.80;;;12.80;;
40745;SDS011;26454;51.164;4.488;2022-12-20T15:49:18;15.85;;;11.40;;
40745;SDS011;26454;51.164;4.488;2022-12-20T15:51:46;15.82;;;12.77;;
40745;SDS011;26454;51.164;4.488;2022-12-20T15:54:23;15.98;;;11.70;;
40745;SDS011;26454;51.164;4.488;2022-12-20T15:56:51;14.32;;;13.02;;
40745;SDS011;26454;51.164;4.488;2022-12-20T15:59:17;14.10;;;12.80;;
40745;SDS011;26454;51.164;4.488;2022-12-20T16:01:44;14.77;;;13.30;;
40745;SDS011;26454;51.164;4.488;2022-12-20T16:04:12;15.93;;;14.32;;
40745;SDS011;26454;51.164;4.488;2022-12-20T16:06:39;15.77;;;14.25;;
40745;SDS011;26454;51.164;4.488;2022-12-20T16:09:05;14.15;;;12.85;;
40745;SDS011;26454;51.164;4.488;2022-12-20T16:11:31;16.40;;;14.45;;
40745;SDS011;26454;51.164;4.488;2022-12-20T16:13:57;13.70;;;12.50;;
40745;SDS011;26454;51.164;4.488;2022-12-20T16:16:28;17.65;;;14.55;;
40745;SDS011;26454;51.164;4.488;2022-12-20T16:18:55;14.35;;;13.07;;
40745;SDS011;26454;51.164;4.488;2022-12-20T16:21:26;16.50;;;15.10;;
40745;SDS011;26454;51.164;4.488;2022-12-20T16:23:52;16.95;;;15.18;;
40745;SDS011;26454;51.164;4.488;2022-12-20T16:26:20;17.02;;;13.48;;
40745;SDS011;26454;51.164;4.488;2022-12-20T16:28:48;19.15;;;14.75;;
40745;SDS011;26454;51.164;4.488;2022-12-20T16:31:29;16.55;;;15.05;;
40745;SDS011;26454;51.164;4.488;2022-12-20T16:33:56;17.13;;;13.30;;
40745;SDS011;26454;51.164;4.488;2022-12-20T16:36:22;18.30;;;14.70;;
40745;SDS011;26454;51.164;4.488;2022-12-20T16:38:49;16.38;;;14.68;;
40745;SDS011;26454;51.164;4.488;2022-12-20T16:41:20;17.10;;;15.50;;
40745;SDS011;26454;51.164;4.488;2022-12-20T16:43:47;15.68;;;14.15;;
40745;SDS011;26454;51.164;4.488;2022-12-20T16:46:15;17.80;;;16.05;;
40745;SDS011;26454;51.164;4.488;2022-12-20T16:48:42;16.90;;;15.10;;
40745;SDS011;26454;51.164;4.488;2022-12-20T16:53:54;18.83;;;17.00;;
40745;SDS011;26454;51.164;4.488;2022-12-20T16:56:21;17.45;;;15.57;;
40745;SDS011;26454;51.164;4.488;2022-12-20T16:58:47;17.55;;;15.68;;
40745;SDS011;26454;51.164;4.488;2022-12-20T17:01:16;22.90;;;16.25;;
40745;SDS011;26454;51.164;4.488;2022-12-20T17:03:46;18.30;;;15.88;;
40745;SDS011;26454;51.164;4.488;2022-12-20T17:06:12;20.80;;;18.58;;
40745;SDS011;26454;51.164;4.488;2022-12-20T17:08:39;20.35;;;18.35;;
40745;SDS011;26454;51.164;4.488;2022-12-20T17:11:15;22.63;;;20.25;;
40745;SDS011;26454;51.164;4.488;2022-12-20T17:13:42;19.35;;;16.45;;